sensor_id;sensor_type;location;lat;lon;timestamp;pressure;altitude;pressure_sealevel;temperature;humidity
9774;BME280;4926;42.670;23.316;2023-05-11T00:02:11;94738.28;;;9.72;100.00
9774;BME280;4926;42.670;23.316;2023-05-11T00:04:38;94748.66;;;9.68;100.00
9774;BME280;4926;42.670;23.316;2023-05-11T00:07:08;94743.94;;;9.60;100.00
9774;BME280;4926;42.670;23.316;2023-05-11T00:09:35;94741.84;;;9.52;100.00
9774;BME280;4926;42.670;23.316;2023-05-11T00:12:03;94749.28;;;9.50;100.00
9774;BME280;4926;42.670;23.316;2023-05-11T00:14:32;94750.91;;;9.51;100.00
9774;BME280;4926;42.670;23.316;2023-05-11T00:17:00;94743.94;;;9.55;100.00
9774;BME280;4926;42.670;23.316;2023-05-11T00:19:27;94748.47;;;9.60;100.00
9774;BME280;4926;42.670;23.316;2023-05-11T00:21:55;94742.94;;;9.51;100.00
9774;BME280;4926;42.670;23.316;2023-05-11T00:24:22;94750.66;;;9.48;100.00
9774;BME280;4926;42.670;23.316;2023-05-11T00:26:49;94746.91;;;9.49;100.00
9774;BME280;4926;42.670;23.316;2023-05-11T00:29:16;94741.28;;;9.55;100.00
9774;BME280;4926;42.670;23.316;2023-05-11T00:31:42;94754.56;;;9.60;100.00
9774;BME280;4926;42.670;23.316;2023-05-11T00:34:13;94749.81;;;9.52;100.00
9774;BME280;4926;42.670;23.316;2023-05-11T00:36:43;94748.28;;;9.46;100.00
9774;BME280;4926;42.670;23.316;2023-05-11T00:39:10;94758.41;;;9.39;100.00
9774;BME280;4926;42.670;23.316;2023-05-11T00:41:38;94753.94;;;9.30;100.00
9774;BME280;4926;42.670;23.316;2023-05-11T00:44:05;94757.41;;;9.25;100.00
9774;BME280;4926;42.670;23.316;2023-05-11T00:46:34;94760.06;;;9.25;100.00
9774;BME280;4926;42.670;23.316;2023-05-11T00:49:03;94763.00;;;9.24;100.00
9774;BME280;4926;42.670;23.316;2023-05-11T00:51:32;94765.94;;;9.17;100.00
9774;BME280;4926;42.670;23.316;2023-05-11T00:54:00;94761.72;;;9.11;100.00
9774;BME280;4926;42.670;23.316;2023-05-11T00:56:29;94756.44;;;9.06;100.00
9774;BME280;4926;42.670;23.316;2023-05-11T00:58:55;94760.38;;;9.14;100.00
9774;BME280;4926;42.670;23.316;2023-05-11T01:01:28;94761.75;;;9.06;100.00
9774;BME280;4926;42.670;23.316;2023-05-11T01:03:55;94759.63;;;9.03;100.00
9774;BME280;4926;42.670;23.316;2023-05-11T01:06:26;94761.78;;;8.91;100.00
9774;BME280;4926;42.670;23.316;2023-05-11T01:09:01;94759.66;;;8.98;100.00
9774;BME280;4926;42.670;23.316;2023-05-11T01:11:36;94766.56;;;8.99;100.00
9774;BME280;4926;42.670;23.316;2023-05-11T01:14:13;94752.78;;;8.92;100.00
9774;BME280;4926;42.670;23.316;2023-05-11T01:16:43;94759.97;;;8.86;100.00
9774;BME280;4926;42.670;23.316;2023-05-11T01:19:18;94752.28;;;8.85;100.00
9774;BME280;4926;42.670;23.316;2023-05-11T01:21:52;94761.81;;;8.86;100.00
9774;BME280;4926;42.670;23.316;2023-05-11T01:24:24;94761.03;;;8.80;100.00
9774;BME280;4926;42.670;23.316;2023-05-11T01:27:05;94756.56;;;8.71;100.00
9774;BME280;4926;42.670;23.316;2023-05-11T01:32:43;94751.25;;;8.71;100.00
9774;BME280;4926;42.670;23.316;2023-05-11T01:35:17;94760.25;;;8.75;100.00
9774;BME280;4926;42.670;23.316;2023-05-11T01:37:49;94758.94;;;8.72;100.00
9774;BME280;4926;42.670;23.316;2023-05-11T01:40:17;94758.13;;;8.77;100.00
9774;BME280;4926;42.670;23.316;2023-05-11T01:42:49;94761.84;;;8.81;100.00
9774;BME280;4926;42.670;23.316;2023-05-11T01:45:17;94755.19;;;8.78;100.00
9774;BME280;4926;42.670;23.316;2023-05-11T01:47:49;94753.88;;;8.81;100.00
9774;BME280;4926;42.670;23.316;2023-05-11T01:50:23;94762.63;;;8.76;100.00
9774;BME280;4926;42.670;23.316;2023-05-11T01:52:51;94770.09;;;8.74;100.00
9774;BME280;4926;42.670;23.316;2023-05-11T01:55:20;94760.50;;;8.78;100.00
9774;BME280;4926;42.670;23.316;2023-05-11T01:57:51;94759.72;;;8.78;100.00
9774;BME280;4926;42.670;23.316;2023-05-11T02:00:18;94761.59;;;8.72;100.00
9774;BME280;4926;42.670;23.316;2023-05-11T02:02:48;94756.81;;;8.79;100.00
9774;BME280;4926;42.670;23.316;2023-05-11T02:05:20;94762.13;;;8.74;100.00
9774;BME280;4926;42.670;23.316;2023-05-11T02:07:48;94761.31;;;8.74;100.00
9774;BME280;4926;42.670;23.316;2023-05-11T02:10:17;94758.41;;;8.75;100.00
9774;BME280;4926;42.670;23.316;2023-05-11T02:12:45;94760.78;;;8.77;100.00
9774;BME280;4926;42.670;23.316;2023-05-11T02:15:18;94755.44;;;8.87;100.00
9774;BME280;4926;42.670;23.316;2023-05-11T02:17:54;94754.16;;;8.79;100.00
9774;BME280;4926;42.670;23.316;2023-05-11T02:20:22;94752.28;;;8.85;100.00
9774;BME280;4926;42.670;23.316;2023-05-11T02:22:50;94755.97;;;8.84;100.00
9774;BME280;4926;42.670;23.316;2023-05-11T02:25:19;94753.03;;;8.90;100.00
9774;BME280;4926;42.670;23.316;2023-05-11T02:27:48;94749.09;;;8.83;100.00
9774;BME280;4926;42.670;23.316;2023-05-11T02:30:16;94749.09;;;8.83;100.00
9774;BME280;4926;42.670;23.316;2023-05-11T02:32:46;94751.72;;;8.88;100.00
9774;BME280;4926;42.670;23.316;2023-05-11T02:35:21;94742.69;;;8.89;100.00
9774;BME280;4926;42.670;23.316;2023-05-11T02:38:03;94740.13;;;8.69;100.00
9774;BME280;4926;42.670;23.316;2023-05-11T02:40:39;94748.31;;;8.77;100.00
9774;BME280;4926;42.670;23.316;2023-05-11T02:43:10;94750.16;;;8.77;100.00
9774;BME280;4926;42.670;23.316;2023-05-11T02:45:38;94749.13;;;8.73;100.00
9774;BME280;4926;42.670;23.316;2023-05-11T02:48:11;94753.63;;;8.72;100.00
9774;BME280;4926;42.670;23.316;2023-05-11T02:50:42;94753.66;;;8.67;100.00
9774;BME280;4926;42.670;23.316;2023-05-11T02:53:13;94748.34;;;8.72;100.00
9774;BME280;4926;42.670;23.316;2023-05-11T02:55:40;94750.72;;;8.69;100.00
9774;BME280;4926;42.670;23.316;2023-05-11T02:58:09;94745.94;;;8.71;100.00
9774;BME280;4926;42.670;23.316;2023-05-11T03:00:39;94753.88;;;8.81;100.00
9774;BME280;4926;42.670;23.316;2023-05-11T03:03:07;94754.91;;;8.90;100.00
9774;BME280;4926;42.670;23.316;2023-05-11T03:05:34;94757.34;;;8.81;100.00
9774;BME280;4926;42.670;23.316;2023-05-11T03:08:03;94743.81;;;8.78;100.00
9774;BME280;4926;42.670;23.316;2023-05-11T03:10:32;94747.81;;;8.70;100.00
9774;BME280;4926;42.670;23.316;2023-05-11T03:13:00;94741.91;;;8.83;100.00
9774;BME280;4926;42.670;23.316;2023-05-11T03:15:30;94749.34;;;8.76;100.00
9774;BME280;4926;42.670;23.316;2023-05-11T03:17:58;94752.31;;;8.70;100.00
9774;BME280;4926;42.670;23.316;2023-05-11T03:20:28;94746.97;;;8.80;100.00
9774;BME280;4926;42.670;23.316;2023-05-11T03:22:59;94738.75;;;8.76;100.00
9774;BME280;4926;42.670;23.316;2023-05-11T03:25:30;94744.84;;;8.82;100.00
9774;BME280;4926;42.670;23.316;2023-05-11T03:27:58;94753.34;;;8.79;100.00
9774;BME280;4926;42.670;23.316;2023-05-11T03:30:27;94748.63;;;8.66;100.00
9774;BME280;4926;42.670;23.316;2023-05-11T03:32:54;94760.00;;;8.66;100.00
9774;BME280;4926;42.670;23.316;2023-05-11T03:35:26;94751.25;;;8.76;100.00
9774;BME280;4926;42.670;23.316;2023-05-11T03:37:55;94752.31;;;8.70;100.00
9774;BME280;4926;42.670;23.316;2023-05-11T03:40:40;94751.25;;;8.71;100.00
9774;BME280;4926;42.670;23.316;2023-05-11T03:43:10;94762.38;;;8.78;100.00
9774;BME280;4926;42.670;23.316;2023-05-11T03:45:38;94762.09;;;8.84;100.00
9774;BME280;4926;42.670;23.316;2023-05-11T03:48:07;94761.84;;;8.81;100.00
9774;BME280;4926;42.670;23.316;2023-05-11T03:50:35;94764.50;;;8.81;100.00
9774;BME280;4926;42.670;23.316;2023-05-11T03:53:06;94765.25;;;8.91;100.00
9774;BME280;4926;42.670;23.316;2023-05-11T03:55:35;94771.94;;;8.74;100.00
9774;BME280;4926;42.670;23.316;2023-05-11T03:58:06;94764.00;;;8.69;100.00
9774;BME280;4926;42.670;23.316;2023-05-11T04:00:36;94767.47;;;8.59;100.00
9774;BME280;4926;42.670;23.316;2023-05-11T04:03:04;94774.63;;;8.69;100.00
9774;BME280;4926;42.670;23.316;2023-05-11T04:05:31;94773.25;;;8.71;100.00
9774;BME280;4926;42.670;23.316;2023-05-11T04:07:57;94764.47;;;8.86;100.00
9774;BME280;4926;42.670;23.316;2023-05-11T04:10:26;94769.47;;;8.92;100.00
9774;BME280;4926;42.670;23.316;2023-05-11T04:12:53;94774.91;;;8.62;100.00
9774;BME280;4926;42.670;23.316;2023-05-11T04:15:21;94780.22;;;8.62;100.00
9774;BME280;4926;42.670;23.316;2023-05-11T04:17:50;94768.75;;;8.72;100.00
9774;BME280;4926;42.670;23.316;2023-05-11T04:20:17;94777.75;;;8.81;100.00
9774;BME280;4926;42.670;23.316;2023-05-11T04:22:44;94777.47;;;8.87;100.00
9774;BME280;4926;42.670;23.316;2023-05-11T04:25:10;94779.31;;;8.87;100.00
9774;BME280;4926;42.670;23.316;2023-05-11T04:27:37;94779.94;;;8.54;100.00
9774;BME280;4926;42.670;23.316;2023-05-11T04:30:07;94782.06;;;8.57;100.00
9774;BME280;4926;42.670;23.316;2023-05-11T04:32:35;94785.50;;;8.62;100.00
9774;BME280;4926;42.670;23.316;2023-05-11T04:35:02;94782.34;;;8.55;100.00
9774;BME280;4926;42.670;23.316;2023-05-11T04:37:29;94788.97;;;8.53;100.00
9774;BME280;4926;42.670;23.316;2023-05-11T04:39:56;94785.25;;;8.59;100.00
9774;BME280;4926;42.670;23.316;2023-05-11T04:42:22;94788.94;;;8.68;100.00
9774;BME280;4926;42.670;23.316;2023-05-11T04:44:51;94788.16;;;8.67;100.00
9774;BME280;4926;42.670;23.316;2023-05-11T04:47:18;94793.75;;;8.51;100.00
9774;BME280;4926;42.670;23.316;2023-05-11T04:49:46;94786.28;;;8.63;100.00
9774;BME280;4926;42.670;23.316;2023-05-11T04:52:13;94792.94;;;8.65;100.00
9774;BME280;4926;42.670;23.316;2023-05-11T04:54:40;94799.56;;;8.63;100.00
9774;BME280;4926;42.670;23.316;2023-05-11T04:57:09;94795.31;;;8.62;100.00
9774;BME280;4926;42.670;23.316;2023-05-11T04:59:39;94795.88;;;8.59;100.00
9774;BME280;4926;42.670;23.316;2023-05-11T05:02:08;94796.41;;;8.41;100.00
9774;BME280;4926;42.670;23.316;2023-05-11T05:04:34;94797.47;;;8.40;100.00
9774;BME280;4926;42.670;23.316;2023-05-11T05:07:02;94796.13;;;8.52;100.00
9774;BME280;4926;42.670;23.316;2023-05-11T05:09:29;94803.28;;;8.47;100.00
9774;BME280;4926;42.670;23.316;2023-05-11T05:11:56;94817.09;;;8.49;100.00
9774;BME280;4926;42.670;23.316;2023-05-11T05:14:23;94805.94;;;8.42;100.00
9774;BME280;4926;42.670;23.316;2023-05-11T05:16:49;94816.56;;;8.62;100.00
9774;BME280;4926;42.670;23.316;2023-05-11T05:19:18;94812.56;;;8.74;100.00
9774;BME280;4926;42.670;23.316;2023-05-11T05:21:45;94819.75;;;8.64;100.00
9774;BME280;4926;42.670;23.316;2023-05-11T05:24:13;94812.88;;;8.43;100.00
9774;BME280;4926;42.670;23.316;2023-05-11T05:26:40;94816.56;;;8.42;100.00
9774;BME280;4926;42.670;23.316;2023-05-11T05:29:07;94823.44;;;8.23;100.00
9774;BME280;4926;42.670;23.316;2023-05-11T05:31:34;94815.50;;;8.08;100.00
9774;BME280;4926;42.670;23.316;2023-05-11T05:34:02;94823.97;;;8.20;100.00
9774;BME280;4926;42.670;23.316;2023-05-11T05:36:29;94823.44;;;8.18;100.00
9774;BME280;4926;42.670;23.316;2023-05-11T05:38:59;94821.31;;;8.15;100.00
9774;BME280;4926;42.670;23.316;2023-05-11T05:41:27;94814.44;;;8.19;100.00
9774;BME280;4926;42.670;23.316;2023-05-11T05:43:53;94820.78;;;8.18;100.00
9774;BME280;4926;42.670;23.316;2023-05-11T05:46:20;94823.16;;;8.09;100.00
9774;BME280;4926;42.670;23.316;2023-05-11T05:48:47;94828.19;;;8.16;100.00
9774;BME280;4926;42.670;23.316;2023-05-11T05:51:16;94828.19;;;8.16;100.00
9774;BME280;4926;42.670;23.316;2023-05-11T05:53:46;94831.38;;;8.18;100.00
9774;BME280;4926;42.670;23.316;2023-05-11T05:56:17;94831.16;;;8.24;100.00
9774;BME280;4926;42.670;23.316;2023-05-11T05:58:45;94833.03;;;8.29;100.00
9774;BME280;4926;42.670;23.316;2023-05-11T06:01:12;94833.28;;;8.27;100.00
9774;BME280;4926;42.670;23.316;2023-05-11T06:03:39;94828.50;;;8.24;100.00
9774;BME280;4926;42.670;23.316;2023-05-11T06:06:06;94831.44;;;8.38;100.00
9774;BME280;4926;42.670;23.316;2023-05-11T06:08:35;94839.13;;;8.39;100.00
9774;BME280;4926;42.670;23.316;2023-05-11T06:11:02;94833.56;;;8.36;100.00
9774;BME280;4926;42.670;23.316;2023-05-11T06:13:29;94833.00;;;8.39;100.00
9774;BME280;4926;42.670;23.316;2023-05-11T06:15:57;94834.09;;;8.43;100.00
9774;BME280;4926;42.670;23.316;2023-05-11T06:18:24;94837.25;;;8.50;100.00
9774;BME280;4926;42.670;23.316;2023-05-11T06:21:00;94850.53;;;8.50;100.00
9774;BME280;4926;42.670;23.316;2023-05-11T06:23:26;94852.66;;;8.43;100.00
9774;BME280;4926;42.670;23.316;2023-05-11T06:25:56;94856.09;;;8.33;100.00
9774;BME280;4926;42.670;23.316;2023-05-11T06:28:23;94853.69;;;8.42;100.00
9774;BME280;4926;42.670;23.316;2023-05-11T06:30:56;94864.56;;;8.45;100.00
9774;BME280;4926;42.670;23.316;2023-05-11T06:33:23;94852.13;;;8.41;100.00
9774;BME280;4926;42.670;23.316;2023-05-11T06:35:50;94861.13;;;8.50;100.00
9774;BME280;4926;42.670;23.316;2023-05-11T06:38:20;94856.34;;;8.47;100.00
9774;BME280;4926;42.670;23.316;2023-05-11T06:40:50;94861.66;;;8.42;100.00
9774;BME280;4926;42.670;23.316;2023-05-11T06:43:20;94867.22;;;8.45;100.00
9774;BME280;4926;42.670;23.316;2023-05-11T06:45:47;94863.00;;;8.34;100.00
9774;BME280;4926;42.670;23.316;2023-05-11T06:48:15;94860.34;;;8.39;100.00
9774;BME280;4926;42.670;23.316;2023-05-11T06:50:44;94857.69;;;8.54;100.00
9774;BME280;4926;42.670;23.316;2023-05-11T06:53:11;94850.50;;;8.60;100.00
9774;BME280;4926;42.670;23.316;2023-05-11T06:55:38;94851.06;;;8.62;100.00
9774;BME280;4926;42.670;23.316;2023-05-11T06:58:04;94845.19;;;8.65;100.00
9774;BME280;4926;42.670;23.316;2023-05-11T07:00:31;94851.59;;;8.64;100.00
9774;BME280;4926;42.670;23.316;2023-05-11T07:02:58;94857.41;;;8.76;100.00
9774;BME280;4926;42.670;23.316;2023-05-11T07:05:26;94853.66;;;8.92;100.00
9774;BME280;4926;42.670;23.316;2023-05-11T07:07:53;94853.66;;;8.92;100.00
9774;BME280;4926;42.670;23.316;2023-05-11T07:10:25;94842.53;;;8.65;100.00
9774;BME280;4926;42.670;23.316;2023-05-11T07:12:52;94852.03;;;8.96;100.00
9774;BME280;4926;42.670;23.316;2023-05-11T07:15:20;94862.13;;;8.94;100.00
9774;BME280;4926;42.670;23.316;2023-05-11T07:17:47;94869.06;;;8.85;100.00
9774;BME280;4926;42.670;23.316;2023-05-11T07:20:14;94860.56;;;8.93;100.00
9774;BME280;4926;42.670;23.316;2023-05-11T07:22:42;94862.38;;;9.08;100.00
9774;BME280;4926;42.670;23.316;2023-05-11T07:25:12;94863.88;;;9.39;100.00
9774;BME280;4926;42.670;23.316;2023-05-11T07:27:39;94856.69;;;9.44;100.00
9774;BME280;4926;42.670;23.316;2023-05-11T07:30:06;94862.84;;;9.30;100.00
9774;BME280;4926;42.670;23.316;2023-05-11T07:32:36;94869.25;;;9.29;100.00
9774;BME280;4926;42.670;23.316;2023-05-11T07:35:05;94879.56;;;9.35;100.00
9774;BME280;4926;42.670;23.316;2023-05-11T07:37:32;94865.97;;;9.47;100.00
9774;BME280;4926;42.670;23.316;2023-05-11T07:40:02;94858.81;;;9.42;100.00
9774;BME280;4926;42.670;23.316;2023-05-11T07:42:32;94872.81;;;9.63;100.00
9774;BME280;4926;42.670;23.316;2023-05-11T07:44:59;94865.59;;;9.73;100.00
9774;BME280;4926;42.670;23.316;2023-05-11T07:47:29;94879.66;;;9.79;100.00
9774;BME280;4926;42.670;23.316;2023-05-11T07:50:01;94871.97;;;9.77;100.00
9774;BME280;4926;42.670;23.316;2023-05-11T07:52:27;94868.56;;;9.62;100.00
9774;BME280;4926;42.670;23.316;2023-05-11T07:54:57;94870.03;;;9.88;100.00
9774;BME280;4926;42.670;23.316;2023-05-11T07:57:25;94876.16;;;9.83;100.00
9774;BME280;4926;42.670;23.316;2023-05-11T07:59:52;94875.03;;;9.99;100.00
9774;BME280;4926;42.670;23.316;2023-05-11T08:02:19;94866.75;;;10.45;100.00
9774;BME280;4926;42.670;23.316;2023-05-11T08:04:46;94870.88;;;10.94;96.47
9774;BME280;4926;42.670;23.316;2023-05-11T08:07:15;94866.00;;;11.01;91.11
9774;BME280;4926;42.670;23.316;2023-05-11T08:09:41;94858.38;;;10.90;90.08
9774;BME280;4926;42.670;23.316;2023-05-11T08:12:12;94872.59;;;10.47;91.39
9774;BME280;4926;42.670;23.316;2023-05-11T08:14:40;94867.00;;;10.82;90.71
9774;BME280;4926;42.670;23.316;2023-05-11T08:17:07;94860.34;;;11.08;88.12
9774;BME280;4926;42.670;23.316;2023-05-11T08:19:34;94866.13;;;11.15;86.98
9774;BME280;4926;42.670;23.316;2023-05-11T08:22:01;94864.25;;;11.39;86.35
9774;BME280;4926;42.670;23.316;2023-05-11T08:24:27;94860.75;;;11.20;84.89
9774;BME280;4926;42.670;23.316;2023-05-11T08:26:54;94862.69;;;10.86;86.05
9774;BME280;4926;42.670;23.316;2023-05-11T08:29:24;94860.75;;;11.20;86.67
9774;BME280;4926;42.670;23.316;2023-05-11T08:31:54;94849.34;;;10.91;85.05
9774;BME280;4926;42.670;23.316;2023-05-11T08:34:24;94867.91;;;10.96;84.18
9774;BME280;4926;42.670;23.316;2023-05-11T08:36:50;94870.59;;;10.34;86.25
9774;BME280;4926;42.670;23.316;2023-05-11T08:39:20;94875.88;;;10.39;88.41
9774;BME280;4926;42.670;23.316;2023-05-11T08:41:50;94860.66;;;10.73;86.59
9774;BME280;4926;42.670;23.316;2023-05-11T08:44:18;94874.75;;;11.07;85.69
9774;BME280;4926;42.670;23.316;2023-05-11T08:46:48;94868.50;;;10.93;84.15
9774;BME280;4926;42.670;23.316;2023-05-11T08:49:19;94869.00;;;10.95;85.18
9774;BME280;4926;42.670;23.316;2023-05-11T08:51:46;94867.81;;;11.06;84.20
9774;BME280;4926;42.670;23.316;2023-05-11T08:54:13;94875.69;;;11.21;84.32
9774;BME280;4926;42.670;23.316;2023-05-11T08:56:40;94854.81;;;11.28;82.90
9774;BME280;4926;42.670;23.316;2023-05-11T08:59:07;94848.56;;;11.14;83.24
9774;BME280;4926;42.670;23.316;2023-05-11T09:01:38;94854.78;;;11.52;84.23
9774;BME280;4926;42.670;23.316;2023-05-11T09:04:10;94858.84;;;11.49;81.51
9774;BME280;4926;42.670;23.316;2023-05-11T09:06:39;94855.03;;;11.32;82.46
9774;BME280;4926;42.670;23.316;2023-05-11T09:09:09;94851.91;;;11.48;83.27
9774;BME280;4926;42.670;23.316;2023-05-11T09:11:39;94854.66;;;11.62;82.22
9774;BME280;4926;42.670;23.316;2023-05-11T09:14:06;94851.78;;;11.58;82.15
9774;BME280;4926;42.670;23.316;2023-05-11T09:16:33;94844.69;;;11.72;82.41
9774;BME280;4926;42.670;23.316;2023-05-11T09:19:00;94839.13;;;12.29;81.40
9774;BME280;4926;42.670;23.316;2023-05-11T09:21:29;94847.09;;;11.92;80.77
9774;BME280;4926;42.670;23.316;2023-05-11T09:23:57;94847.19;;;11.87;81.57
9774;BME280;4926;42.670;23.316;2023-05-11T09:26:25;94862.69;;;11.85;83.11
9774;BME280;4926;42.670;23.316;2023-05-11T09:28:57;94872.47;;;11.71;83.70
9774;BME280;4926;42.670;23.316;2023-05-11T09:31:35;94862.81;;;11.75;84.59
9774;BME280;4926;42.670;23.316;2023-05-11T09:34:13;94867.84;;;11.53;85.46
9774;BME280;4926;42.670;23.316;2023-05-11T09:36:40;94875.63;;;11.26;86.75
9774;BME280;4926;42.670;23.316;2023-05-11T09:39:12;94866.53;;;11.51;87.73
9774;BME280;4926;42.670;23.316;2023-05-11T09:41:39;94874.88;;;11.44;87.46
9774;BME280;4926;42.670;23.316;2023-05-11T09:44:07;94851.19;;;11.66;85.96
9774;BME280;4926;42.670;23.316;2023-05-11T09:46:35;94863.97;;;11.41;87.59
9774;BME280;4926;42.670;23.316;2023-05-11T09:49:03;94876.00;;;11.38;89.22
9774;BME280;4926;42.670;23.316;2023-05-11T09:51:34;94851.47;;;10.89;90.71
9774;BME280;4926;42.670;23.316;2023-05-11T09:54:16;94861.03;;;10.95;90.56
9774;BME280;4926;42.670;23.316;2023-05-11T09:56:44;94843.75;;;10.59;93.32
9774;BME280;4926;42.670;23.316;2023-05-11T09:59:15;94849.50;;;10.99;91.89
9774;BME280;4926;42.670;23.316;2023-05-11T10:01:46;94850.88;;;10.68;93.70
9774;BME280;4926;42.670;23.316;2023-05-11T10:04:13;94842.03;;;10.73;94.63
9774;BME280;4926;42.670;23.316;2023-05-11T10:06:45;94838.13;;;11.17;92.79
9774;BME280;4926;42.670;23.316;2023-05-11T10:09:12;94846.28;;;11.02;91.98
9774;BME280;4926;42.670;23.316;2023-05-11T10:11:43;94833.59;;;11.18;92.29
9774;BME280;4926;42.670;23.316;2023-05-11T10:14:11;94824.72;;;11.46;90.50
9774;BME280;4926;42.670;23.316;2023-05-11T10:16:43;94815.72;;;11.66;89.01
9774;BME280;4926;42.670;23.316;2023-05-11T10:19:11;94817.63;;;12.02;88.42
9774;BME280;4926;42.670;23.316;2023-05-11T10:21:39;94819.59;;;12.48;84.51
9774;BME280;4926;42.670;23.316;2023-05-11T10:24:07;94817.84;;;12.24;83.53
9774;BME280;4926;42.670;23.316;2023-05-11T10:26:35;94822.59;;;12.27;84.27
9774;BME280;4926;42.670;23.316;2023-05-11T10:29:05;94811.91;;;12.60;82.97
9774;BME280;4926;42.670;23.316;2023-05-11T10:31:34;94809.00;;;12.43;83.15
9774;BME280;4926;42.670;23.316;2023-05-11T10:34:02;94807.16;;;12.57;82.31
9774;BME280;4926;42.670;23.316;2023-05-11T10:36:29;94806.75;;;12.17;81.88
9774;BME280;4926;42.670;23.316;2023-05-11T10:38:57;94801.03;;;12.05;83.00
9774;BME280;4926;42.670;23.316;2023-05-11T10:41:36;94796.69;;;12.09;83.13
9774;BME280;4926;42.670;23.316;2023-05-11T10:44:30;94799.44;;;12.04;82.66
9774;BME280;4926;42.670;23.316;2023-05-11T10:47:11;94805.16;;;11.98;81.50
9774;BME280;4926;42.670;23.316;2023-05-11T10:50:06;94799.16;;;12.24;81.67
9774;BME280;4926;42.670;23.316;2023-05-11T10:52:52;94806.16;;;12.53;81.75
9774;BME280;4926;42.670;23.316;2023-05-11T10:55:32;94795.84;;;12.92;79.98
9774;BME280;4926;42.670;23.316;2023-05-11T10:58:06;94797.03;;;12.21;80.99
9774;BME280;4926;42.670;23.316;2023-05-11T11:01:21;94815.16;;;12.24;81.85
9774;BME280;4926;42.670;23.316;2023-05-11T11:03:56;94812.97;;;12.26;81.48
9774;BME280;4926;42.670;23.316;2023-05-11T11:06:23;94786.97;;;12.51;80.08
9774;BME280;4926;42.670;23.316;2023-05-11T11:08:54;94799.97;;;12.71;79.67
9774;BME280;4926;42.670;23.316;2023-05-11T11:11:29;94794.44;;;12.81;79.54
9774;BME280;4926;42.670;23.316;2023-05-11T11:13:57;94795.66;;;12.88;78.74
9774;BME280;4926;42.670;23.316;2023-05-11T11:16:28;94795.75;;;12.97;77.98
9774;BME280;4926;42.670;23.316;2023-05-11T11:22:01;94789.28;;;13.16;77.04
9774;BME280;4926;42.670;23.316;2023-05-11T11:24:45;94794.41;;;12.99;77.62
9774;BME280;4926;42.670;23.316;2023-05-11T11:27:14;94788.88;;;13.09;77.69
9774;BME280;4926;42.670;23.316;2023-05-11T11:30:16;94794.22;;;13.23;77.80
9774;BME280;4926;42.670;23.316;2023-05-11T11:32:45;94785.63;;;13.26;75.74
9774;BME280;4926;42.670;23.316;2023-05-11T11:35:45;94793.69;;;12.94;77.55
9774;BME280;4926;42.670;23.316;2023-05-11T11:38:16;94802.69;;;12.01;80.80
9774;BME280;4926;42.670;23.316;2023-05-11T11:40:44;94781.69;;;12.13;81.06
9774;BME280;4926;42.670;23.316;2023-05-11T11:43:12;94787.88;;;12.27;81.67
9774;BME280;4926;42.670;23.316;2023-05-11T11:45:51;94792.03;;;12.52;80.65
9774;BME280;4926;42.670;23.316;2023-05-11T11:48:31;94786.69;;;12.52;79.65
9774;BME280;4926;42.670;23.316;2023-05-11T11:51:01;94803.16;;;12.41;79.23
9774;BME280;4926;42.670;23.316;2023-05-11T11:53:56;94792.22;;;12.23;81.23
9774;BME280;4926;42.670;23.316;2023-05-11T11:56:43;94781.56;;;12.37;79.96
9774;BME280;4926;42.670;23.316;2023-05-11T11:59:15;94780.69;;;12.09;80.25
9774;BME280;4926;42.670;23.316;2023-05-11T12:01:43;94786.88;;;12.23;80.11
9774;BME280;4926;42.670;23.316;2023-05-11T12:07:18;94787.88;;;12.27;82.76
9774;BME280;4926;42.670;23.316;2023-05-11T12:09:46;94783.59;;;12.45;81.94
9774;BME280;4926;42.670;23.316;2023-05-11T12:12:16;94777.78;;;12.57;81.18
9774;BME280;4926;42.670;23.316;2023-05-11T12:14:43;94791.34;;;12.60;81.47
9774;BME280;4926;42.670;23.316;2023-05-11T12:17:14;94788.28;;;12.21;81.67
9774;BME280;4926;42.670;23.316;2023-05-11T12:19:45;94778.81;;;12.10;82.04
9774;BME280;4926;42.670;23.316;2023-05-11T12:22:12;94783.88;;;12.11;82.61
9774;BME280;4926;42.670;23.316;2023-05-11T12:24:41;94778.44;;;12.16;83.19
9774;BME280;4926;42.670;23.316;2023-05-11T12:27:08;94767.53;;;12.31;82.62
9774;BME280;4926;42.670;23.316;2023-05-11T12:29:40;94770.69;;;12.33;82.69
9774;BME280;4926;42.670;23.316;2023-05-11T12:32:10;94785.34;;;12.36;83.21
9774;BME280;4926;42.670;23.316;2023-05-11T12:34:40;94772.00;;;12.36;82.65
9774;BME280;4926;42.670;23.316;2023-05-11T12:37:08;94759.75;;;12.16;82.60
9774;BME280;4926;42.670;23.316;2023-05-11T12:39:35;94767.84;;;12.11;84.01
9774;BME280;4926;42.670;23.316;2023-05-11T12:42:04;94759.97;;;12.20;83.04
9774;BME280;4926;42.670;23.316;2023-05-11T12:44:31;94755.59;;;12.10;82.54
9774;BME280;4926;42.670;23.316;2023-05-11T12:46:58;94747.75;;;12.00;82.26
9774;BME280;4926;42.670;23.316;2023-05-11T12:49:25;94745.06;;;12.00;83.47
9774;BME280;4926;42.670;23.316;2023-05-11T12:52:00;94749.84;;;12.03;83.54
9774;BME280;4926;42.670;23.316;2023-05-11T12:54:30;94749.41;;;11.96;83.74
9774;BME280;4926;42.670;23.316;2023-05-11T12:56:58;94736.72;;;11.88;83.15
9774;BME280;4926;42.670;23.316;2023-05-11T12:59:35;94739.72;;;12.00;83.01
9774;BME280;4926;42.670;23.316;2023-05-11T13:02:07;94734.94;;;11.84;82.19
9774;BME280;4926;42.670;23.316;2023-05-11T13:04:34;94732.47;;;11.87;83.50
9774;BME280;4926;42.670;23.316;2023-05-11T13:07:01;94740.06;;;11.80;84.66
9774;BME280;4926;42.670;23.316;2023-05-11T13:09:29;94729.34;;;11.67;85.29
9774;BME280;4926;42.670;23.316;2023-05-11T13:12:09;94731.84;;;11.77;86.03
9774;BME280;4926;42.670;23.316;2023-05-11T13:14:36;94730.44;;;11.98;86.02
9774;BME280;4926;42.670;23.316;2023-05-11T13:17:03;94722.75;;;11.96;83.96
9774;BME280;4926;42.670;23.316;2023-05-11T13:19:30;94715.69;;;11.87;82.70
9774;BME280;4926;42.670;23.316;2023-05-11T13:21:58;94728.88;;;11.78;83.33
9774;BME280;4926;42.670;23.316;2023-05-11T13:24:25;94726.06;;;11.88;84.57
9774;BME280;4926;42.670;23.316;2023-05-11T13:26:54;94723.44;;;12.02;84.31
9774;BME280;4926;42.670;23.316;2023-05-11T13:29:22;94715.22;;;11.98;83.81
9774;BME280;4926;42.670;23.316;2023-05-11T13:31:50;94706.47;;;12.11;83.32
9774;BME280;4926;42.670;23.316;2023-05-11T13:34:18;94711.91;;;12.06;83.49